createdAt,value
2022-11-05T00:03:20.170Z,4.0602006688963215
2022-11-05T00:11:00.440Z,3.0267558528428093
2022-11-05T00:18:23.100Z,2.1872909698996654
2022-11-05T00:26:23.898Z,1.9331103678929766
2022-11-05T00:34:02.149Z,2.391304347826087
2022-11-05T00:41:34.491Z,2.862876254180602
2022-11-05T00:55:41.759Z,2.31438127090301
2022-11-05T01:07:38.155Z,1.6956521739130435
2022-11-05T01:15:13.086Z,2.682274247491639
2022-11-05T01:25:41.213Z,1.434782608695652
2022-11-05T01:33:33.034Z,1.8929765886287626
2022-11-05T01:43:17.676Z,1.0033444816053512
2022-11-05T01:51:33.970Z,2.5183946488294313
2022-11-05T02:03:41.752Z,2.274247491638796
2022-11-05T02:11:29.026Z,1.625418060200669
2022-11-05T02:19:35.679Z,2.0133779264214047
2022-11-05T02:27:47.568Z,1.7525083612040133
2022-11-05T02:43:58.918Z,1.68561872909699
2022-11-05T02:52:34.180Z,1.4983277591973243
2022-11-05T03:02:19.857Z,2.1872909698996654
2022-11-05T03:16:58.549Z,1.4247491638795986
2022-11-05T03:24:56.406Z,1.939799331103679
2022-11-05T03:33:25.186Z,2.0903010033444818
2022-11-05T03:41:18.937Z,1.6120401337792643
2022-11-05T03:49:06.741Z,1.8695652173913044
2022-11-05T03:56:54.067Z,2.511705685618729
2022-11-05T04:04:42.879Z,1.859531772575251
2022-11-05T04:12:36.557Z,2.0033444816053514
2022-11-05T04:20:24.061Z,1.0869565217391304
2022-11-05T04:30:36.146Z,1.7926421404682273
2022-11-05T04:52:59.130Z,1.9163879598662208
2022-11-05T05:01:02.786Z,1.806020066889632
2022-11-05T05:08:58.501Z,1.4949832775919731
2022-11-05T05:17:08.633Z,1.0267558528428093
2022-11-05T05:30:56.141Z,2.4147157190635453
2022-11-05T05:55:23.505Z,1.9264214046822743
2022-11-05T06:08:27.396Z,2.234113712374582
2022-11-05T06:16:08.198Z,1.7224080267558528
2022-11-05T06:28:17.133Z,1.3846153846153846
2022-11-05T06:36:17.222Z,1.5384615384615385
2022-11-05T06:43:50.913Z,1.2809364548494984
2022-11-05T06:53:08.351Z,1.5351170568561874
2022-11-05T07:09:33.644Z,1.919732441471572
2022-11-05T07:17:56.214Z,3.0735785953177257
2022-11-05T07:26:21.345Z,2.1872909698996654
2022-11-05T07:34:28.992Z,2.297658862876254
2022-11-05T07:48:06.672Z,2.468227424749164
2022-11-05T07:57:15.202Z,2.297658862876254
2022-11-05T08:05:41.077Z,1.3043478260869565
2022-11-05T08:13:42.971Z,2.3076923076923075
2022-11-05T08:23:16.377Z,1.3578595317725752
2022-11-05T08:36:23.476Z,1.7591973244147157
2022-11-05T08:44:52.593Z,2.240802675585284
2022-11-05T08:52:54.431Z,1.608695652173913
2022-11-05T09:01:01.797Z,1.62876254180602
2022-11-05T09:08:34.961Z,1.745819397993311
2022-11-05T09:15:53.662Z,1.2240802675585285
2022-11-05T09:23:24.829Z,1.2909698996655519
2022-11-05T09:30:46.082Z,1.7123745819397993
2022-11-05T09:38:40.496Z,0.9765886287625418
2022-11-05T09:46:22.853Z,1.1705685618729098
2022-11-05T09:53:45.794Z,1.5585284280936456
2022-11-05T10:01:14.173Z,1.3779264214046822
2022-11-05T10:08:50.536Z,1.7391304347826086
2022-11-05T10:16:23.849Z,1.31438127090301
2022-11-05T10:36:39.776Z,1.4180602006688963
2022-11-05T10:49:25.417Z,1.8929765886287626
2022-11-05T10:56:58.467Z,0.7558528428093646
2022-11-05T11:04:06.067Z,1.4581939799331103
2022-11-05T11:12:08.808Z,1.608695652173913
2022-11-05T11:23:21.716Z,1.4615384615384615
2022-11-05T11:34:53.439Z,1.2173913043478262
2022-11-05T11:51:26.868Z,1.37123745819398
2022-11-05T12:09:38.392Z,1.4448160535117056
2022-11-05T12:26:48.984Z,1.3244147157190636
2022-11-05T12:38:58.463Z,1.1705685618729098
2022-11-05T12:55:59.581Z,1.3043478260869565
2022-11-05T13:31:47.678Z,0.8361204013377926
2022-11-05T13:47:52.909Z,1.3478260869565217
2022-11-05T13:57:18.853Z,1.2274247491638797
2022-11-05T14:08:03.146Z,1.6321070234113713
2022-11-05T14:17:53.363Z,1.2642140468227425
2022-11-05T14:28:16.651Z,1.060200668896321
2022-11-05T14:37:44.065Z,1.8494983277591974
2022-11-05T14:49:15.564Z,1.5518394648829432
2022-11-05T14:57:53.318Z,1.7424749163879598
2022-11-05T15:05:54.688Z,1.879598662207358
2022-11-05T15:14:01.625Z,2.290969899665552
2022-11-05T15:22:34.526Z,2.408026755852843
2022-11-05T15:37:57.294Z,2.57190635451505
2022-11-05T15:45:38.164Z,1.9464882943143813
2022-11-05T15:54:28.566Z,1.899665551839465
2022-11-05T16:02:36.152Z,1.7324414715719063
2022-11-05T16:14:13.248Z,2.1036789297658864
2022-11-05T16:32:07.165Z,2.120401337792642
2022-11-05T16:40:27.103Z,1.7324414715719063
2022-11-05T17:10:19.941Z,1.7759197324414715
2022-11-05T17:28:43.045Z,2.6722408026755855
2022-11-05T17:43:41.047Z,2.6187290969899664
2022-11-05T17:53:30.940Z,2.331103678929766
2022-11-05T18:19:16.058Z,3.3578595317725752
2022-11-05T18:28:00.226Z,2.4648829431438126
2022-11-05T18:40:03.143Z,1.4548494983277591
2022-11-05T18:48:55.790Z,2.668896321070234
2022-11-05T18:56:52.986Z,1.2775919732441472
2022-11-05T19:05:30.535Z,2.668896321070234
2022-11-05T19:15:05.105Z,6.230769230769231
2022-11-05T19:32:56.981Z,19.137123745819398
2022-11-05T19:44:46.190Z,25.859531772575252
2022-11-05T19:55:41.307Z,23.692307692307693
2022-11-05T20:23:00.036Z,2.351170568561873
2022-11-05T20:33:26.712Z,2.6053511705685617
2022-11-05T20:42:47.486Z,2.0869565217391304
2022-11-05T21:00:11.572Z,2.2040133779264215
2022-11-05T21:12:41.122Z,3.020066889632107
2022-11-05T21:21:41.573Z,2.8361204013377925
2022-11-05T21:33:30.959Z,2.6454849498327757
2022-11-05T21:42:07.820Z,2.2876254180602005
2022-11-05T21:51:12.463Z,2.3745819397993313
2022-11-05T21:59:21.433Z,1.745819397993311
2022-11-05T22:09:36.186Z,2.197324414715719
2022-11-05T22:18:43.383Z,2.280936454849498
2022-11-05T22:27:47.811Z,2.2240802675585285
2022-11-05T22:38:21.887Z,1.9531772575250836
2022-11-05T22:47:09.260Z,2.016722408026756
2022-11-05T22:55:24.072Z,1.5451505016722409
2022-11-05T23:11:11.527Z,2.351170568561873
2022-11-05T23:24:35.610Z,1.9498327759197325
2022-11-05T23:32:47.903Z,1.4983277591973243
2022-11-05T23:44:30.874Z,1.0568561872909699
2022-11-05T23:56:13.071Z,1.8494983277591974
